Time,TemperatureF,DewpointF,PressureIn,WindDirection,WindDirectionDegrees,WindSpeedMPH,WindSpeedGustMPH,Humidity,HourlyPrecipIn,Conditions,Clouds,dailyrainin,SoftwareType,DateUTC
2013-08-07 00:00:00,57.7,54.2,29.78,ESE,122,3.0,7.0,88,0.00,RA,RA,0.00,WeatherDisplay:10.37,2013-08-06 23:00:00,
2013-08-07 00:10:00,57.7,54.2,29.78,SE,135,2.0,5.0,88,0.00,CLR,CLR,0.00,WeatherDisplay:10.37,2013-08-06 23:10:00,
2013-08-07 00:20:00,57.7,54.2,29.78,SE,132,3.0,5.0,88,0.00,CLR,CLR,0.00,WeatherDisplay:10.37,2013-08-06 23:20:00,
2013-08-07 00:30:00,57.4,53.9,29.78,SE,131,5.0,6.0,88,0.00,CLR,CLR,0.00,WeatherDisplay:10.37,2013-08-06 23:30:00,
2013-08-07 00:40:00,57.2,53.7,29.78,ESE,123,5.0,6.0,88,0.00,CLR,CLR,0.00,WeatherDisplay:10.37,2013-08-06 23:40:00,
2013-08-07 00:50:00,56.9,53.7,29.78,SE,127,3.0,6.0,89,0.00,CLR,CLR,0.00,WeatherDisplay:10.37,2013-08-06 23:50:00,
2013-08-07 01:00:00,57.0,53.8,29.78,ESE,118,5.0,7.0,89,0.00,CLR,CLR,0.00,WeatherDisplay:10.37,2013-08-07 00:00:00,
2013-08-07 01:10:00,57.0,53.8,29.78,SE,132,6.0,7.0,89,0.00,CLR,CLR,0.00,WeatherDisplay:10.37,2013-08-07 00:10:00,
2013-08-07 01:20:00,57.0,53.4,29.78,ESE,118,5.0,8.0,88,0.00,CLR,CLR,0.00,WeatherDisplay:10.37,2013-08-07 00:20:00,
2013-08-07 01:30:00,56.8,53.3,29.78,ESE,103,6.0,7.0,88,0.00,CLR,CLR,0.00,WeatherDisplay:10.37,2013-08-07 00:30:00,
2013-08-07 01:40:00,57.1,53.6,29.78,ESE,115,5.0,8.0,88,0.00,CLR,CLR,0.00,WeatherDisplay:10.37,2013-08-07 00:40:00,
2013-08-07 01:50:00,57.2,53.0,29.77,SE,124,6.0,8.0,86,0.00,CLR,CLR,0.00,WeatherDisplay:10.37,2013-08-07 00:50:00,
2013-08-07 02:00:00,56.8,53.0,29.78,ESE,111,5.0,8.0,87,0.00,CLR,CLR,0.00,WeatherDisplay:10.37,2013-08-07 01:00:00,
2013-08-07 02:10:00,56.7,52.8,29.78,ESE,102,5.0,7.0,87,0.00,CLR,CLR,0.00,WeatherDisplay:10.37,2013-08-07 01:10:00,
2013-08-07 02:20:00,56.5,53.0,29.78,East,82,2.0,8.0,88,0.00,CLR,CLR,0.00,WeatherDisplay:10.37,2013-08-07 01:20:00,
2013-08-07 02:30:00,56.5,53.0,29.78,ENE,69,2.0,6.0,88,0.00,CLR,CLR,0.00,WeatherDisplay:10.37,2013-08-07 01:30:00,
2013-08-07 02:40:00,56.5,53.0,29.79,East,84,5.0,7.0,88,0.00,CLR,CLR,0.00,WeatherDisplay:10.37,2013-08-07 01:40:00,
2013-08-07 02:50:00,56.7,52.8,29.79,ENE,63,3.0,6.0,87,0.00,CLR,CLR,0.00,WeatherDisplay:10.37,2013-08-07 01:50:00,
2013-08-07 03:00:00,56.3,52.5,29.79,ENE,65,2.0,7.0,87,0.00,CLR,CLR,0.00,WeatherDisplay:10.37,2013-08-07 02:00:00,
2013-08-07 03:10:00,56.1,52.3,29.79,NE,48,5.0,7.0,87,0.00,CLR,CLR,0.00,WeatherDisplay:10.37,2013-08-07 02:10:00,
2013-08-07 03:20:00,55.7,52.2,29.79,NE,37,5.0,8.0,88,0.00,CLR,CLR,0.00,WeatherDisplay:10.37,2013-08-07 02:20:00,
2013-08-07 03:30:00,55.8,52.3,29.79,ENE,78,6.0,9.0,88,0.00,CLR,CLR,0.00,WeatherDisplay:10.37,2013-08-07 02:30:00,
2013-08-07 03:40:00,55.6,51.8,29.79,ENE,76,3.0,10.0,87,0.00,CLR,CLR,0.00,WeatherDisplay:10.37,2013-08-07 02:40:00,
2013-08-07 03:50:00,55.4,51.9,29.79,NE,39,5.0,8.0,88,0.00,CLR,CLR,0.00,WeatherDisplay:10.37,2013-08-07 02:50:00,
2013-08-07 04:00:00,55.4,51.9,29.79,NE,48,5.0,10.0,88,0.00,CLR,CLR,0.00,WeatherDisplay:10.37,2013-08-07 03:00:00,
2013-08-07 04:10:00,55.0,51.9,29.79,ENE,72,6.0,12.0,89,0.00,CLR,CLR,0.00,WeatherDisplay:10.37,2013-08-07 03:10:00,
2013-08-07 04:20:00,54.7,51.5,29.78,ENE,59,7.0,11.0,89,0.00,CLR,CLR,0.00,WeatherDisplay:10.37,2013-08-07 03:20:00,
2013-08-07 04:30:00,54.7,51.8,29.80,NE,47,6.0,10.0,90,0.00,CLR,CLR,0.00,WeatherDisplay:10.37,2013-08-07 03:30:00,
2013-08-07 04:40:00,54.7,51.8,29.80,NE,38,9.0,12.0,90,0.00,CLR,CLR,0.00,WeatherDisplay:10.37,2013-08-07 03:40:00,
2013-08-07 04:50:00,54.9,52.0,29.79,NE,47,7.0,13.0,90,0.00,CLR,CLR,0.00,WeatherDisplay:10.37,2013-08-07 03:50:00,
2013-08-07 05:00:00,54.3,51.1,29.80,ENE,57,6.0,10.0,89,0.00,CLR,CLR,0.00,WeatherDisplay:10.37,2013-08-07 04:00:00,
2013-08-07 05:10:00,54.1,51.3,29.80,NE,37,6.0,11.0,90,0.00,CLR,CLR,0.00,WeatherDisplay:10.37,2013-08-07 04:10:00,
2013-08-07 05:20:00,53.8,50.9,29.81,NE,47,6.0,12.0,90,0.00,CLR,CLR,0.00,WeatherDisplay:10.37,2013-08-07 04:20:00,
2013-08-07 05:30:00,53.8,50.9,29.81,NE,48,6.0,12.0,90,0.00,CLR,CLR,0.00,WeatherDisplay:10.37,2013-08-07 04:30:00,
2013-08-07 05:40:00,53.6,50.7,29.82,ENE,63,6.0,10.0,90,0.00,CLR,CLR,0.00,WeatherDisplay:10.37,2013-08-07 04:40:00,
2013-08-07 05:50:00,53.4,50.9,29.82,ENE,57,5.0,11.0,91,0.00,CLR,CLR,0.00,WeatherDisplay:10.37,2013-08-07 04:50:00,
2013-08-07 06:00:00,53.4,51.2,29.82,ENE,63,6.0,10.0,92,0.00,CLR,CLR,0.00,WeatherDisplay:10.37,2013-08-07 05:00:00,
2013-08-07 06:10:00,53.6,51.0,29.82,NE,36,6.0,10.0,91,0.00,CLR,CLR,0.00,WeatherDisplay:10.37,2013-08-07 05:10:00,
2013-08-07 06:20:00,53.8,50.9,29.83,ENE,70,7.0,12.0,90,0.00,CLR,CLR,0.00,WeatherDisplay:10.37,2013-08-07 05:20:00,
2013-08-07 06:30:00,54.0,51.1,29.83,NE,51,3.0,9.0,90,0.00,CLR,CLR,0.00,WeatherDisplay:10.37,2013-08-07 05:30:00,
2013-08-07 06:40:00,54.0,51.1,29.83,ENE,62,6.0,13.0,90,0.00,CLR,CLR,0.00,WeatherDisplay:10.37,2013-08-07 05:40:00,
2013-08-07 06:50:00,54.0,51.1,29.84,East,82,3.0,12.0,90,0.00,CLR,CLR,0.00,WeatherDisplay:10.37,2013-08-07 05:50:00,
2013-08-07 07:00:00,54.0,51.4,29.84,East,84,7.0,10.0,91,0.00,CLR,CLR,0.00,WeatherDisplay:10.37,2013-08-07 06:00:00,
2013-08-07 07:10:00,54.1,51.6,29.84,East,94,6.0,11.0,91,0.00,CLR,CLR,0.00,WeatherDisplay:10.37,2013-08-07 06:10:00,
2013-08-07 07:20:00,54.5,51.9,29.84,East,86,3.0,9.0,91,0.00,CLR,CLR,0.00,WeatherDisplay:10.37,2013-08-07 06:20:00,
2013-08-07 07:30:00,55.0,52.5,29.84,East,86,5.0,10.0,91,0.00,CLR,CLR,0.00,WeatherDisplay:10.37,2013-08-07 06:30:00,
2013-08-07 07:40:00,55.2,52.6,29.84,East,93,6.0,12.0,91,0.00,CLR,CLR,0.00,WeatherDisplay:10.37,2013-08-07 06:40:00,
2013-08-07 07:50:00,55.6,52.7,29.84,East,97,6.0,11.0,90,0.00,CLR,CLR,0.00,WeatherDisplay:10.37,2013-08-07 06:50:00,
2013-08-07 08:00:00,55.9,53.1,29.84,ESE,111,3.0,9.0,90,0.00,CLR,CLR,0.00,WeatherDisplay:10.37,2013-08-07 07:00:00,
2013-08-07 08:10:00,56.6,53.7,29.85,ESE,111,3.0,10.0,90,0.00,CLR,CLR,0.00,WeatherDisplay:10.37,2013-08-07 07:10:00,
2013-08-07 08:20:00,57.4,54.2,29.86,East,86,1.0,5.0,89,0.00,CLR,CLR,0.00,WeatherDisplay:10.37,2013-08-07 07:20:00,
2013-08-07 08:30:00,58.3,54.8,29.86,ENE,69,1.0,6.0,88,0.00,CLR,CLR,0.00,WeatherDisplay:10.37,2013-08-07 07:30:00,
2013-08-07 08:40:00,59.2,55.0,29.86,ENE,60,0.0,6.0,86,0.00,CLR,CLR,0.00,WeatherDisplay:10.37,2013-08-07 07:40:00,
2013-08-07 08:50:00,60.6,56.1,29.86,East,96,0.0,4.0,85,0.00,CLR,CLR,0.00,WeatherDisplay:10.37,2013-08-07 07:50:00,
2013-08-07 09:00:00,61.5,56.3,29.86,ESE,102,2.0,3.0,83,0.00,CLR,CLR,0.00,WeatherDisplay:10.37,2013-08-07 08:00:00,
2013-08-07 09:10:00,61.6,56.1,29.86,East,98,3.0,6.0,82,0.00,CLR,CLR,0.00,WeatherDisplay:10.37,2013-08-07 08:10:00,
2013-08-07 09:20:00,64.0,57.7,29.86,East,100,1.0,6.0,80,0.00,CLR,CLR,0.00,WeatherDisplay:10.37,2013-08-07 08:20:00,
2013-08-07 09:30:00,66.1,58.0,29.87,NNE,22,3.0,7.0,75,0.00,CLR,CLR,0.00,WeatherDisplay:10.37,2013-08-07 08:30:00,
2013-08-07 09:40:00,66.8,57.5,29.88,NE,47,2.0,7.0,72,0.00,CLR,CLR,0.00,WeatherDisplay:10.37,2013-08-07 08:40:00,
2013-08-07 09:50:00,64.8,56.7,29.88,NNE,32,1.0,6.0,75,0.01,RA,RA,0.01,WeatherDisplay:10.37,2013-08-07 08:50:00,
2013-08-07 10:00:00,65.0,56.8,29.88,North,355,3.0,6.0,75,0.00,CLR,CLR,0.01,WeatherDisplay:10.37,2013-08-07 09:00:00,
2013-08-07 10:10:00,66.2,56.9,29.88,North,10,2.0,6.0,72,0.00,CLR,CLR,0.01,WeatherDisplay:10.37,2013-08-07 09:10:00,
2013-08-07 10:20:00,66.6,57.7,29.88,NE,35,2.0,6.0,73,0.00,CLR,CLR,0.01,WeatherDisplay:10.37,2013-08-07 09:20:00,
2013-08-07 10:30:00,70.2,58.3,29.88,North,10,1.0,6.0,66,0.00,CLR,CLR,0.01,WeatherDisplay:10.37,2013-08-07 09:30:00,
2013-08-07 10:40:00,71.8,57.6,29.88,NNE,19,1.0,5.0,61,0.00,CLR,CLR,0.01,WeatherDisplay:10.37,2013-08-07 09:40:00,
2013-08-07 10:50:00,70.9,57.2,29.88,NNE,25,0.0,6.0,62,0.00,CLR,CLR,0.01,WeatherDisplay:10.37,2013-08-07 09:50:00,
2013-08-07 11:00:00,70.9,54.4,29.88,NNE,30,2.0,8.0,56,0.00,CLR,CLR,0.01,WeatherDisplay:10.37,2013-08-07 10:00:00,
2013-08-07 11:10:00,73.1,55.5,29.88,NE,35,5.0,8.0,54,0.00,CLR,CLR,0.01,WeatherDisplay:10.37,2013-08-07 10:10:00,
2013-08-07 11:20:00,72.1,53.0,29.88,NNE,27,1.0,7.0,51,0.00,CLR,CLR,0.01,WeatherDisplay:10.37,2013-08-07 10:20:00,
2013-08-07 11:30:00,71.8,47.4,29.88,East,94,2.0,4.0,42,0.00,CLR,CLR,0.01,WeatherDisplay:10.37,2013-08-07 10:30:00,
2013-08-07 11:40:00,71.6,51.4,29.89,NNE,26,0.0,5.0,49,0.00,CLR,CLR,0.01,WeatherDisplay:10.37,2013-08-07 10:40:00,
2013-08-07 11:50:00,73.1,53.9,29.89,SW,223,6.0,8.0,51,0.00,CLR,CLR,0.01,WeatherDisplay:10.37,2013-08-07 10:50:00,
2013-08-07 12:00:00,69.6,55.1,29.89,West,263,6.0,8.0,60,0.00,CLR,CLR,0.01,WeatherDisplay:10.37,2013-08-07 11:00:00,
2013-08-07 12:10:00,68.8,55.2,29.89,West,269,3.0,8.0,62,0.00,CLR,CLR,0.01,WeatherDisplay:10.37,2013-08-07 11:10:00,
2013-08-07 12:20:00,70.7,54.7,29.89,West,268,3.0,7.0,57,0.00,CLR,CLR,0.01,WeatherDisplay:10.37,2013-08-07 11:20:00,
2013-08-07 12:30:00,71.2,54.7,29.89,WNW,290,3.0,8.0,56,0.00,CLR,CLR,0.01,WeatherDisplay:10.37,2013-08-07 11:30:00,
2013-08-07 12:40:00,70.7,54.2,29.89,West,265,3.0,7.0,56,0.00,CLR,CLR,0.01,WeatherDisplay:10.37,2013-08-07 11:40:00,
2013-08-07 12:50:00,71.1,54.2,29.89,WSW,258,2.0,8.0,55,0.00,CLR,CLR,0.01,WeatherDisplay:10.37,2013-08-07 11:50:00,
2013-08-07 13:00:00,71.9,52.8,29.89,WNW,292,6.0,8.0,51,0.00,CLR,CLR,0.01,WeatherDisplay:10.37,2013-08-07 12:00:00,
2013-08-07 13:10:00,73.5,54.3,29.89,NNW,334,3.0,8.0,51,0.00,CLR,CLR,0.01,WeatherDisplay:10.37,2013-08-07 12:10:00,
2013-08-07 13:20:00,73.9,55.1,29.89,West,263,3.0,9.0,52,0.00,CLR,CLR,0.01,WeatherDisplay:10.37,2013-08-07 12:20:00,
2013-08-07 13:30:00,73.8,52.8,29.89,NNE,31,3.0,6.0,48,0.00,CLR,CLR,0.01,WeatherDisplay:10.37,2013-08-07 12:30:00,
2013-08-07 13:40:00,74.3,55.5,29.89,North,357,1.0,7.0,52,0.00,CLR,CLR,0.01,WeatherDisplay:10.37,2013-08-07 12:40:00,
2013-08-07 13:50:00,75.2,53.6,29.89,North,352,2.0,7.0,47,0.00,CLR,CLR,0.01,WeatherDisplay:10.37,2013-08-07 12:50:00,
2013-08-07 14:00:00,74.8,54.9,29.89,NW,310,3.0,7.0,50,0.00,CLR,CLR,0.01,WeatherDisplay:10.37,2013-08-07 13:00:00,
2013-08-07 14:10:00,74.5,54.1,29.89,WNW,294,6.0,10.0,49,0.00,CLR,CLR,0.01,WeatherDisplay:10.37,2013-08-07 13:10:00,
2013-08-07 14:20:00,73.9,53.5,29.90,West,274,7.0,9.0,49,0.00,CLR,CLR,0.01,WeatherDisplay:10.37,2013-08-07 13:20:00,
2013-08-07 14:30:00,74.5,53.5,29.90,West,276,5.0,8.0,48,0.00,CLR,CLR,0.01,WeatherDisplay:10.37,2013-08-07 13:30:00,
2013-08-07 14:40:00,75.1,54.6,29.90,WNW,283,6.0,9.0,49,0.00,CLR,CLR,0.01,WeatherDisplay:10.37,2013-08-07 13:40:00,
2013-08-07 14:50:00,74.0,53.1,29.90,WSW,248,6.0,8.0,48,0.00,CLR,CLR,0.01,WeatherDisplay:10.37,2013-08-07 13:50:00,
2013-08-07 15:00:00,75.4,52.6,29.91,West,263,6.0,9.0,45,0.00,CLR,CLR,0.01,WeatherDisplay:10.37,2013-08-07 14:00:00,
2013-08-07 15:10:00,72.6,52.9,29.91,WNW,284,7.0,12.0,50,0.00,CLR,CLR,0.01,WeatherDisplay:10.37,2013-08-07 14:10:00,
2013-08-07 15:20:00,70.2,52.7,29.91,WSW,244,6.0,12.0,54,0.00,CLR,CLR,0.01,WeatherDisplay:10.37,2013-08-07 14:20:00,
2013-08-07 15:30:00,70.0,53.1,29.91,WNW,284,9.0,14.0,55,0.00,CLR,CLR,0.01,WeatherDisplay:10.37,2013-08-07 14:30:00,
2013-08-07 15:40:00,69.6,52.2,29.92,West,271,7.0,13.0,54,0.00,CLR,CLR,0.01,WeatherDisplay:10.37,2013-08-07 14:40:00,
2013-08-07 15:50:00,69.4,51.5,29.91,West,277,7.0,13.0,53,0.00,CLR,CLR,0.01,WeatherDisplay:10.37,2013-08-07 14:50:00,
2013-08-07 16:00:00,69.6,51.7,29.91,WSW,253,6.0,9.0,53,0.00,CLR,CLR,0.01,WeatherDisplay:10.37,2013-08-07 15:00:00,
2013-08-07 16:10:00,70.9,51.3,29.91,West,265,5.0,8.0,50,0.00,CLR,CLR,0.01,WeatherDisplay:10.37,2013-08-07 15:10:00,
2013-08-07 16:20:00,69.2,51.3,29.91,West,262,6.0,8.0,53,0.00,CLR,CLR,0.01,WeatherDisplay:10.37,2013-08-07 15:20:00,
2013-08-07 16:30:00,68.5,51.7,29.91,West,263,5.0,7.0,55,0.00,CLR,CLR,0.01,WeatherDisplay:10.37,2013-08-07 15:30:00,
2013-08-07 16:40:00,68.5,53.6,29.91,WNW,297,1.0,7.0,59,0.00,CLR,CLR,0.01,WeatherDisplay:10.37,2013-08-07 15:40:00,
2013-08-07 16:50:00,68.2,55.6,29.92,NNE,31,7.0,11.0,64,0.00,CLR,CLR,0.01,WeatherDisplay:10.37,2013-08-07 15:50:00,
2013-08-07 17:00:00,67.5,55.7,29.91,NNE,28,5.0,10.0,66,0.00,CLR,CLR,0.01,WeatherDisplay:10.37,2013-08-07 16:00:00,
2013-08-07 17:10:00,67.1,55.8,29.91,NNE,32,6.0,9.0,67,0.00,CLR,CLR,0.01,WeatherDisplay:10.37,2013-08-07 16:10:00,
2013-08-07 17:20:00,67.1,56.2,29.91,NNE,20,6.0,8.0,68,0.00,CLR,CLR,0.01,WeatherDisplay:10.37,2013-08-07 16:20:00,
2013-08-07 17:30:00,67.3,55.9,29.92,NNE,27,5.0,8.0,67,0.00,CLR,CLR,0.01,WeatherDisplay:10.37,2013-08-07 16:30:00,
2013-08-07 17:40:00,67.9,56.1,29.92,NNE,20,0.0,8.0,66,0.00,CLR,CLR,0.01,WeatherDisplay:10.37,2013-08-07 16:40:00,
2013-08-07 17:50:00,68.5,55.8,29.92,NNE,31,5.0,7.0,64,0.00,CLR,CLR,0.01,WeatherDisplay:10.37,2013-08-07 16:50:00,
2013-08-07 18:00:00,68.4,56.1,29.92,NNE,30,1.0,6.0,65,0.00,CLR,CLR,0.01,WeatherDisplay:10.37,2013-08-07 17:00:00,
2013-08-07 18:10:00,68.9,56.2,29.92,ENE,63,0.0,5.0,64,0.00,CLR,CLR,0.01,WeatherDisplay:10.37,2013-08-07 17:10:00,
2013-08-07 18:20:00,69.5,56.4,29.92,NE,43,2.0,5.0,63,0.00,CLR,CLR,0.01,WeatherDisplay:10.37,2013-08-07 17:20:00,
2013-08-07 18:30:00,68.9,55.8,29.92,NE,35,0.0,5.0,63,0.00,CLR,CLR,0.01,WeatherDisplay:10.37,2013-08-07 17:30:00,
2013-08-07 18:40:00,69.3,55.7,29.92,NNE,28,1.0,3.0,62,0.00,CLR,CLR,0.01,WeatherDisplay:10.37,2013-08-07 17:40:00,
2013-08-07 18:50:00,68.9,55.8,29.92,NE,39,0.0,3.0,63,0.00,CLR,CLR,0.01,WeatherDisplay:10.37,2013-08-07 17:50:00,
2013-08-07 19:00:00,69.4,56.3,29.92,ENE,73,0.0,2.0,63,0.00,CLR,CLR,0.01,WeatherDisplay:10.37,2013-08-07 18:00:00,
2013-08-07 19:10:00,69.8,55.8,29.92,ENE,70,0.0,2.0,61,0.00,CLR,CLR,0.01,WeatherDisplay:10.37,2013-08-07 18:10:00,
2013-08-07 19:20:00,70.0,55.9,29.93,East,99,1.0,3.0,61,0.00,CLR,CLR,0.01,WeatherDisplay:10.37,2013-08-07 18:20:00,
2013-08-07 19:30:00,69.1,55.6,29.92,NE,52,0.0,3.0,62,0.00,CLR,CLR,0.01,WeatherDisplay:10.37,2013-08-07 18:30:00,
2013-08-07 19:40:00,69.6,56.0,29.93,ENE,58,0.0,2.0,62,0.00,CLR,CLR,0.01,WeatherDisplay:10.37,2013-08-07 18:40:00,
2013-08-07 19:50:00,69.8,55.3,29.93,North,7,0.0,2.0,60,0.00,CLR,CLR,0.01,WeatherDisplay:10.37,2013-08-07 18:50:00,
2013-08-07 20:00:00,71.5,56.9,29.93,SE,140,0.0,2.0,60,0.00,CLR,CLR,0.01,WeatherDisplay:10.37,2013-08-07 19:00:00,
2013-08-07 20:10:00,75.2,56.9,29.93,ESE,112,0.0,1.0,53,0.00,CLR,CLR,0.01,WeatherDisplay:10.37,2013-08-07 19:10:00,
2013-08-07 20:20:00,71.1,55.1,29.93,East,90,0.0,0.0,57,0.00,CLR,CLR,0.01,WeatherDisplay:10.37,2013-08-07 19:20:00,
2013-08-07 20:30:00,68.4,54.8,29.94,WSW,252,1.0,3.0,62,0.00,CLR,CLR,0.01,WeatherDisplay:10.37,2013-08-07 19:30:00,
2013-08-07 20:40:00,69.4,56.3,29.93,West,263,1.0,3.0,63,0.00,CLR,CLR,0.01,WeatherDisplay:10.37,2013-08-07 19:40:00,
2013-08-07 20:50:00,70.7,57.0,29.93,SW,225,0.0,2.0,62,0.00,CLR,CLR,0.01,WeatherDisplay:10.37,2013-08-07 19:50:00,
2013-08-07 21:00:00,68.6,55.0,29.93,SW,225,1.0,2.0,62,0.00,CLR,CLR,0.01,WeatherDisplay:10.37,2013-08-07 20:00:00,
2013-08-07 21:10:00,66.4,54.3,29.93,SW,228,1.0,2.0,65,0.00,CLR,CLR,0.01,WeatherDisplay:10.37,2013-08-07 20:10:00,
2013-08-07 21:20:00,65.4,54.2,29.94,SW,225,1.0,2.0,67,0.00,CLR,CLR,0.01,WeatherDisplay:10.37,2013-08-07 20:20:00,
2013-08-07 21:30:00,65.1,53.9,29.94,SW,225,1.0,2.0,67,0.00,CLR,CLR,0.01,WeatherDisplay:10.37,2013-08-07 20:30:00,
2013-08-07 21:40:00,64.8,54.7,29.95,SW,225,0.0,2.0,70,0.00,CLR,CLR,0.01,WeatherDisplay:10.37,2013-08-07 20:40:00,
2013-08-07 21:50:00,64.0,54.8,29.94,SSE,164,1.0,2.0,72,0.00,CLR,CLR,0.01,WeatherDisplay:10.37,2013-08-07 20:50:00,
2013-08-07 22:00:00,64.0,54.8,29.94,East,101,1.0,4.0,72,0.00,CLR,CLR,0.01,WeatherDisplay:10.37,2013-08-07 21:00:00,
2013-08-07 22:10:00,63.9,54.7,29.94,SE,124,1.0,2.0,72,0.00,CLR,CLR,0.01,WeatherDisplay:10.37,2013-08-07 21:10:00,
2013-08-07 22:20:00,63.9,55.0,29.94,East,93,2.0,3.0,73,0.00,CLR,CLR,0.01,WeatherDisplay:10.37,2013-08-07 21:20:00,
2013-08-07 22:30:00,63.5,54.7,29.94,ESE,120,1.0,3.0,73,0.00,CLR,CLR,0.01,WeatherDisplay:10.37,2013-08-07 21:30:00,
2013-08-07 22:40:00,63.5,54.3,29.94,SE,132,0.0,2.0,72,0.00,CLR,CLR,0.01,WeatherDisplay:10.37,2013-08-07 21:40:00,
2013-08-07 22:50:00,63.1,54.3,29.94,SE,135,1.0,2.0,73,0.00,CLR,CLR,0.01,WeatherDisplay:10.37,2013-08-07 21:50:00,
2013-08-07 23:00:00,63.1,54.3,29.94,SE,136,1.0,2.0,73,0.00,CLR,CLR,0.01,WeatherDisplay:10.37,2013-08-07 22:00:00,
2013-08-07 23:10:00,62.6,53.4,29.94,South,179,1.0,2.0,72,0.00,CLR,CLR,0.01,WeatherDisplay:10.37,2013-08-07 22:10:00,
2013-08-07 23:20:00,62.6,53.8,29.94,South,180,1.0,2.0,73,0.00,CLR,CLR,0.01,WeatherDisplay:10.37,2013-08-07 22:20:00,
2013-08-07 23:30:00,61.9,54.2,29.94,SSE,163,1.0,2.0,76,0.00,CLR,CLR,0.01,WeatherDisplay:10.37,2013-08-07 22:30:00,
2013-08-07 23:40:00,61.2,54.2,29.94,SE,135,1.0,3.0,78,0.00,CLR,CLR,0.01,WeatherDisplay:10.37,2013-08-07 22:40:00,
2013-08-07 23:50:00,61.3,54.8,29.94,SE,143,2.0,3.0,79,0.00,CLR,CLR,0.01,WeatherDisplay:10.37,2013-08-07 22:50:00,